KCGE

Cambridge-Dorchester Regional Airport

Cambridge, Maryland, USA
METAR KCGE 211235Z AUTO 20008G13KT 170V230 9SM OVC012 17/16 A3038 RMK A01
Observed Flight Rules
Feb-21 @ 12:35 UTC (37 minutes ago) Marginal Visual Flight Rules
Wind Visibility Clouds
200° at 8 knots
 Gusting to 13 knots
9 miles
  • Overcast at 1,200' AGL
Temperatures Readings
Current 17°C / 63°F
Dewpoint 16°C / 61°F
Humidity 94%
Altimeter 30.38" Hg
Pressure 1029 hPa
Elevation 6
METAR KCGE 211235Z AUTO 20008G13KT 170V230 9SM OVC012 17/16 A3038 RMK A01
Observed Flight Rules
Feb-21 @ 12:35 UTC
(37 minutes ago)
MVFR
Wind Visibility
200° at 8 knots
 Gusting to 13 knots
9 miles
Clouds
  • Overcast at 1,200' AGL
Temperature Dewpoint
17°C / 63°F 16°C / 61°F
Humidity Altimeter Pressure
94% 30.38" Hg 1029 hPa